Time;durP1;ratioP1;P1;durP2;ratioP2;P2;SDS_P1;SDS_P2;PMS_P1;PMS_P2;Temp;Humidity;BMP_temperature;BMP_pressure;BME280_temperature;BME280_humidity;BME280_pressure;Samples;Min_cycle;Max_cycle;Signal;HPM_P1;HPM_P2
2020/12/20 00:02:15;;;;;;;6.87;4.47;;;10.50;57.30;;;10.57;51.03;97848.84;5084176;28;20240;-45
2020/12/20 00:04:43;;;;;;;7.77;3.70;;;10.50;57.60;;;10.54;50.84;97842.00;5066766;28;20041;-46
2020/12/20 00:07:21;;;;;;;6.27;3.77;;;10.50;57.30;;;10.54;50.85;97835.84;5084551;28;20050;-43
2020/12/20 00:09:48;;;;;;;5.17;3.80;;;10.50;57.50;;;10.53;51.01;97845.66;5084442;28;20060;-44
2020/12/20 00:12:16;;;;;;;4.90;3.20;;;10.50;57.60;;;10.53;51.20;97850.16;5084471;28;20048;-45
2020/12/20 00:14:44;;;;;;;6.17;3.50;;;10.50;57.70;;;10.51;51.17;97847.66;5084022;28;20224;-46
2020/12/20 00:17:12;;;;;;;6.00;3.50;;;10.40;57.30;;;10.51;50.90;97844.16;5084724;28;20053;-43
2020/12/20 00:19:39;;;;;;;5.67;4.33;;;10.50;57.30;;;10.52;51.02;97837.81;5084329;28;20340;-44
2020/12/20 00:22:10;;;;;;;6.60;3.80;;;10.50;57.80;;;10.51;51.10;97834.34;5084493;28;20384;-44
2020/12/20 00:24:38;;;;;;;4.90;3.50;;;10.50;57.50;;;10.51;51.22;97828.19;5084310;28;20052;-43
2020/12/20 00:27:07;;;;;;;5.97;3.80;;;10.50;57.50;;;10.49;51.21;97831.00;5083334;28;20049;-43
2020/12/20 00:29:34;;;;;;;4.63;3.07;;;10.40;57.60;;;10.50;51.27;97826.50;5066499;28;20248;-43
2020/12/20 00:32:05;;;;;;;4.97;3.57;;;10.50;57.60;;;10.49;51.05;97819.50;5084046;28;20072;-43
2020/12/20 00:34:33;;;;;;;5.10;3.47;;;10.50;58.20;;;10.48;51.22;97823.97;5084097;28;20032;-45
2020/12/20 00:37:01;;;;;;;6.77;3.83;;;10.40;57.30;;;10.49;51.40;97828.34;5083598;28;20043;-43
2020/12/20 00:39:28;;;;;;;5.57;3.37;;;10.40;57.50;;;10.51;51.06;97837.00;5083254;28;20054;-45
2020/12/20 00:41:58;;;;;;;5.07;3.93;;;10.50;57.50;;;10.53;50.96;97834.19;5083733;28;20239;-44
2020/12/20 00:44:28;;;;;;;5.47;3.53;;;10.50;57.40;;;10.53;50.99;97843.00;5083931;28;20340;-43
2020/12/20 00:46:57;;;;;;;4.00;2.93;;;10.50;57.10;;;10.52;50.60;97845.81;5065668;28;20042;-43
2020/12/20 00:49:27;;;;;;;4.27;3.03;;;10.50;57.30;;;10.53;50.43;97844.81;5083855;28;20056;-45
2020/12/20 00:51:58;;;;;;;4.43;2.93;;;10.50;57.00;;;10.53;49.90;97840.34;5083717;28;20045;-44
2020/12/20 00:54:29;;;;;;;5.37;2.63;;;10.50;56.50;;;10.56;50.39;97836.50;5049281;28;20367;-42
2020/12/20 00:56:57;;;;;;;4.40;3.00;;;10.50;56.80;;;10.54;50.41;97830.50;5065191;28;20386;-44
2020/12/20 00:59:25;;;;;;;5.27;3.20;;;10.60;56.60;;;10.52;50.46;97832.50;5049006;28;20040;-45
2020/12/20 01:01:57;;;;;;;4.57;2.80;;;10.60;56.50;;;10.52;50.52;97825.34;5082955;28;20044;-44
2020/12/20 01:04:26;;;;;;;3.80;2.80;;;10.60;56.50;;;10.54;50.42;97825.19;5049248;28;20070;-43
2020/12/20 01:06:56;;;;;;;5.73;4.23;;;10.50;56.40;;;10.54;50.04;97827.84;5064931;28;20052;-43
2020/12/20 01:09:26;;;;;;;3.73;2.63;;;10.50;56.30;;;10.54;50.33;97812.72;5083456;28;20046;-43
2020/12/20 01:11:57;;;;;;;5.10;3.07;;;10.60;56.40;;;10.57;50.44;97816.91;5048751;28;20048;-43
2020/12/20 01:14:43;;;;;;;4.47;3.10;;;10.50;56.40;;;10.52;50.18;97820.00;5065026;28;20055;-43
2020/12/20 01:17:11;;;;;;;4.87;3.40;;;10.50;56.50;;;10.54;50.37;97819.88;5065628;28;20058;-45
2020/12/20 01:19:43;;;;;;;4.73;3.53;;;10.50;56.90;;;10.54;50.35;97819.88;5064682;28;20051;-43
2020/12/20 01:22:10;;;;;;;5.70;3.47;;;10.50;56.80;;;10.52;50.53;97820.00;5081728;28;20348;-44
2020/12/20 01:24:39;;;;;;;5.13;3.57;;;10.50;56.80;;;10.51;50.16;97825.53;5064800;28;20048;-44
2020/12/20 01:27:13;;;;;;;5.20;3.47;;;10.50;56.70;;;10.51;50.50;97822.84;5083026;28;20040;-45
2020/12/20 01:29:42;;;;;;;5.17;3.67;;;10.50;56.80;;;10.50;50.20;97819.34;5083030;28;20067;-45
2020/12/20 01:32:10;;;;;;;4.33;3.33;;;10.50;56.80;;;10.52;50.66;97828.00;5082623;28;20340;-44
2020/12/20 01:34:40;;;;;;;5.77;3.93;;;10.50;56.90;;;10.52;50.46;97827.19;5048308;28;20252;-44
2020/12/20 01:37:08;;;;;;;5.13;4.00;;;10.50;56.80;;;10.51;50.37;97828.19;5082235;28;20048;-43
2020/12/20 01:39:42;;;;;;;4.20;3.13;;;10.50;56.90;;;10.50;50.53;97835.31;5064882;28;20044;-43
2020/12/20 01:42:10;;;;;;;4.73;3.43;;;10.50;56.90;;;10.50;50.48;97832.66;5081457;28;20070;-44
2020/12/20 01:44:39;;;;;;;4.40;3.17;;;10.50;56.80;;;10.49;50.47;97833.66;5064285;28;20048;-45
2020/12/20 01:47:08;;;;;;;5.43;3.63;;;10.40;56.90;;;10.49;50.54;97835.47;5048397;28;20048;-45
2020/12/20 01:49:38;;;;;;;5.57;3.53;;;10.40;57.10;;;10.46;50.47;97831.28;5064866;28;20051;-44
2020/12/20 01:52:07;;;;;;;6.20;3.60;;;10.40;57.10;;;10.47;50.65;97825.00;5064708;28;20061;-44
2020/12/20 01:54:36;;;;;;;4.43;2.77;;;10.40;56.90;;;10.47;50.80;97825.00;5048003;28;20052;-43
2020/12/20 01:57:14;;;;;;;4.13;3.10;;;10.40;57.30;;;10.47;50.65;97829.47;5049134;28;20048;-46
2020/12/20 01:59:59;;;;;;;4.00;2.80;;;10.40;57.20;;;10.47;50.76;97838.31;5064219;28;20349;-45
2020/12/20 02:02:41;;;;;;;7.03;3.50;;;10.40;57.30;;;10.46;50.76;97830.47;5084613;28;20199;-43
2020/12/20 02:05:16;;;;;;;5.40;3.23;;;10.30;57.30;;;10.44;50.74;97830.63;5061909;28;20052;-46
2020/12/20 02:07:47;;;;;;;4.20;3.10;;;10.30;57.30;;;10.44;50.86;97825.28;5080288;28;20360;-44
2020/12/20 02:10:18;;;;;;;5.50;3.83;;;10.30;57.30;;;10.44;50.78;97827.94;5047230;28;20062;-44
2020/12/20 02:12:47;;;;;;;4.80;3.10;;;10.30;57.10;;;10.43;50.87;97834.28;5048129;28;20062;-43
2020/12/20 02:15:22;;;;;;;5.17;4.03;;;10.30;57.40;;;10.44;51.10;97820.78;5080412;28;20241;-43
2020/12/20 02:17:52;;;;;;;4.07;3.47;;;10.40;58.30;;;10.45;50.63;97826.97;5047597;28;20052;-42
2020/12/20 02:20:24;;;;;;;6.27;3.13;;;10.30;57.60;;;10.46;50.97;97827.81;5080882;28;20048;-43
2020/12/20 02:23:13;;;;;;;5.10;3.53;;;10.30;57.50;;;10.44;51.00;97825.28;5063910;28;20044;-43
2020/12/20 02:25:52;;;;;;;5.23;3.60;;;10.30;57.50;;;10.44;51.22;97819.97;5063607;28;20059;-43
2020/12/20 02:28:26;;;;;;;4.80;3.50;;;10.30;57.90;;;10.44;51.07;97825.28;5080798;28;20067;-42
2020/12/20 02:31:08;;;;;;;7.50;3.40;;;10.30;57.90;;;10.43;51.03;97827.13;5063776;28;20052;-44
2020/12/20 02:33:36;;;;;;;4.20;3.20;;;10.30;57.90;;;10.41;50.87;97825.59;5081378;28;20054;-45
2020/12/20 02:36:06;;;;;;;5.10;3.40;;;10.20;57.70;;;10.38;50.85;97825.91;5081389;28;20036;-43
2020/12/20 02:38:36;;;;;;;5.00;3.63;;;10.20;57.60;;;10.38;51.17;97825.91;5063603;28;20054;-45
2020/12/20 02:41:28;;;;;;;3.30;2.70;;;10.20;57.90;;;10.35;51.34;97820.91;5063833;28;20052;-43
2020/12/20 02:43:55;;;;;;;6.10;3.90;;;10.20;58.30;;;10.34;51.59;97819.25;5063748;28;20058;-44
2020/12/20 02:46:26;;;;;;;4.57;3.37;;;10.20;58.50;;;10.33;51.84;97822.88;5079710;28;20048;-44
2020/12/20 02:49:04;;;;;;;4.73;3.37;;;10.20;58.80;;;10.30;51.69;97818.72;5075865;28;20059;-42
2020/12/20 02:51:39;;;;;;;4.53;2.87;;;10.10;58.70;;;10.29;51.72;97816.16;5061796;28;20329;-43
2020/12/20 02:54:08;;;;;;;3.77;2.90;;;10.20;58.60;;;10.28;51.75;97812.69;5043820;28;20059;-45
2020/12/20 02:56:46;;;;;;;4.30;3.37;;;10.10;58.50;;;10.29;51.81;97808.19;5042895;28;20119;-47
2020/12/20 02:59:29;;;;;;;5.47;3.70;;;10.20;58.60;;;10.28;52.23;97814.50;5043773;28;20341;-43
2020/12/20 03:01:57;;;;;;;5.43;3.60;;;10.10;59.20;;;10.26;52.34;97806.69;5043614;28;20053;-43
2020/12/20 03:04:25;;;;;;;5.10;3.70;;;10.10;59.50;;;10.23;52.16;97820.28;5043522;28;20052;-44
2020/12/20 03:06:53;;;;;;;4.90;3.47;;;10.10;59.50;;;10.19;51.98;97825.06;5043015;28;20063;-45
2020/12/20 03:09:20;;;;;;;5.70;4.30;;;10.00;59.30;;;10.14;52.57;97823.84;5061196;28;20244;-45
2020/12/20 03:11:49;;;;;;;5.80;4.83;;;10.00;59.60;;;10.12;52.62;97825.84;5043722;28;20059;-43
2020/12/20 03:14:18;;;;;;;7.53;5.13;;;9.90;60.30;;;10.05;53.00;97813.16;5043612;28;20053;-42
2020/12/20 03:16:53;;;;;;;5.80;4.27;;;9.80;60.70;;;10.00;53.05;97822.59;5042927;28;20063;-43
2020/12/20 03:19:20;;;;;;;7.80;5.13;;;9.70;61.00;;;9.94;53.00;97813.38;5061466;28;20140;-43
2020/12/20 03:21:50;;;;;;;6.47;5.17;;;9.60;61.30;;;9.89;52.90;97814.84;5043969;28;20111;-42
2020/12/20 03:24:40;;;;;;;7.83;4.87;;;9.50;61.50;;;9.81;53.21;97819.13;5061080;28;20234;-42
2020/12/20 03:27:33;;;;;;;6.23;4.67;;;9.40;62.10;;;9.73;53.50;97818.19;5060408;28;20063;-43
2020/12/20 03:30:20;;;;;;;6.67;4.00;;;9.30;62.60;;;9.67;53.55;97811.66;5050666;28;20367;-43
2020/12/20 03:33:08;;;;;;;6.07;4.10;;;9.30;62.50;;;9.65;53.32;97809.16;5029597;28;20052;-44
2020/12/20 03:35:58;;;;;;;5.30;3.53;;;9.40;61.60;;;9.69;53.43;97806.19;5029851;28;20045;-43
2020/12/20 03:38:25;;;;;;;5.13;3.83;;;9.50;61.30;;;9.72;53.46;97805.91;5043672;28;20061;-44
2020/12/20 03:40:54;;;;;;;6.33;3.47;;;9.60;60.90;;;9.75;53.53;97809.09;5043203;28;20048;-43
2020/12/20 03:43:22;;;;;;;5.23;3.20;;;9.60;60.60;;;9.80;53.49;97813.94;5043339;28;20049;-45
2020/12/20 03:45:59;;;;;;;6.35;3.45;;;9.70;60.50;;;9.82;53.18;97815.44;5042695;28;20048;-43
2020/12/20 03:48:49;;;;;;;5.33;4.00;;;9.80;60.20;;;9.86;53.23;97808.00;5047082;28;20363;-43
2020/12/20 03:51:20;;;;;;;7.63;3.80;;;9.80;60.20;;;9.89;52.95;97812.16;5042960;28;20123;-42
2020/12/20 03:53:54;;;;;;;5.23;3.43;;;9.80;60.00;;;9.88;53.27;97808.69;5043700;28;20075;-43
2020/12/20 03:56:23;;;;;;;5.03;4.10;;;9.80;60.00;;;9.89;53.45;97813.03;5042791;28;20045;-46
2020/12/20 03:58:56;;;;;;;5.95;4.18;;;9.80;60.60;;;9.82;53.34;97806.66;5027932;28;20044;-45
2020/12/20 04:01:25;;;;;;;6.97;5.00;;;9.80;60.70;;;9.81;53.66;97811.13;5046779;28;20226;-43
2020/12/20 04:03:53;;;;;;;5.33;4.47;;;9.70;61.00;;;9.79;54.05;97810.44;5047100;28;20052;-43
2020/12/20 04:06:22;;;;;;;5.47;3.87;;;9.60;61.50;;;9.76;53.60;97808.09;5045792;28;20071;-44
2020/12/20 04:08:49;;;;;;;6.63;4.77;;;9.60;61.70;;;9.75;54.07;97813.53;5064551;28;20049;-42
2020/12/20 04:11:42;;;;;;;7.27;4.33;;;9.50;62.10;;;9.73;54.05;97805.75;5033458;28;20053;-43
2020/12/20 04:14:11;;;;;;;6.70;4.27;;;9.50;62.20;;;9.70;53.88;97803.38;5046867;28;20248;-46
2020/12/20 04:16:39;;;;;;;5.23;3.83;;;9.50;62.10;;;9.71;53.85;97813.00;5046215;28;20040;-44
2020/12/20 04:19:07;;;;;;;4.57;3.50;;;9.50;61.70;;;9.72;53.51;97806.72;5046219;28;20340;-45
2020/12/20 04:21:42;;;;;;;5.10;3.60;;;9.50;61.30;;;9.72;53.87;97790.78;5046968;28;20051;-45
2020/12/20 04:24:20;;;;;;;5.07;3.20;;;9.60;61.30;;;9.75;53.74;97800.25;5046358;28;20072;-44
2020/12/20 04:26:48;;;;;;;3.30;2.80;;;9.60;61.20;;;9.76;53.63;97810.75;5045626;28;20252;-43
2020/12/20 04:29:21;;;;;;;4.05;2.80;;;9.60;60.60;;;9.79;53.39;97814.91;5064208;28;20367;-44
2020/12/20 04:31:56;;;;;;;5.47;3.13;;;9.70;60.70;;;9.81;53.44;97812.97;5046241;28;20055;-43
2020/12/20 04:34:24;;;;;;;5.07;3.70;;;9.70;60.40;;;9.84;53.34;97810.81;5045405;28;20234;-44
2020/12/20 04:36:57;;;;;;;5.90;3.63;;;9.70;60.40;;;9.85;53.39;97823.13;5044582;28;20226;-43
2020/12/20 04:39:48;;;;;;;5.87;3.97;;;9.80;60.00;;;9.85;53.17;97819.66;5043662;28;20056;-45
2020/12/20 04:42:21;;;;;;;5.97;3.67;;;9.70;60.40;;;9.85;53.55;97812.50;5046373;28;20060;-43
2020/12/20 04:44:49;;;;;;;7.17;3.27;;;9.70;60.40;;;9.85;53.41;97817.00;5045833;28;20048;-43
2020/12/20 04:47:19;;;;;;;4.67;3.37;;;9.70;60.30;;;9.85;53.02;97804.53;5029346;28;20053;-43
2020/12/20 04:49:53;;;;;;;4.67;3.43;;;9.80;61.30;;;9.86;53.39;97808.84;5045799;28;20057;-42
2020/12/20 04:52:27;;;;;;;5.30;3.70;;;9.80;60.20;;;9.88;53.38;97805.19;5046284;28;20067;-43
2020/12/20 04:54:59;;;;;;;5.90;3.70;;;9.70;60.20;;;9.86;53.21;97806.19;5045748;28;20053;-44
2020/12/20 04:57:45;;;;;;;5.33;3.50;;;9.80;60.10;;;9.87;53.14;97807.03;5050451;28;20047;-43
2020/12/20 05:00:17;;;;;;;4.43;2.50;;;9.80;59.90;;;9.86;53.02;97806.19;5045773;28;20049;-43
2020/12/20 05:02:46;;;;;;;5.13;3.10;;;9.80;59.80;;;9.87;53.00;97807.03;5045678;28;20044;-44
2020/12/20 05:05:16;;;;;;;5.63;3.67;;;9.80;59.80;;;9.90;52.71;97814.69;5044594;28;20059;-43
2020/12/20 05:07:45;;;;;;;4.77;3.70;;;9.80;59.80;;;9.90;52.98;97817.34;5043638;28;20049;-45
2020/12/20 05:10:16;;;;;;;6.80;4.97;;;9.80;59.70;;;9.92;52.98;97807.38;5046030;28;20052;-45
2020/12/20 05:12:47;;;;;;;10.17;4.80;;;9.80;59.70;;;9.92;53.13;97799.41;5044678;28;20060;-45
2020/12/20 05:15:26;;;;;;;6.43;3.77;;;9.80;59.60;;;9.94;52.89;97807.25;5044599;28;20053;-44
2020/12/20 05:18:18;;;;;;;3.70;2.88;;;9.90;59.60;;;9.94;53.05;97802.75;5058274;28;20055;-43
2020/12/20 05:20:53;;;;;;;4.10;3.10;;;9.80;59.50;;;9.95;52.87;97804.44;5045710;28;20053;-44
2020/12/20 05:23:31;;;;;;;5.30;3.63;;;9.90;59.60;;;9.95;52.79;97815.06;5045193;28;20052;-44
2020/12/20 05:26:31;;;;;;;4.60;2.80;;;9.80;59.30;;;9.97;52.91;97821.06;5032096;28;20061;-43
2020/12/20 05:29:12;;;;;;;5.10;2.90;;;9.80;59.20;;;9.99;52.71;97820.94;5044920;28;20052;-45
2020/12/20 05:31:45;;;;;;;4.72;3.20;;;9.80;59.30;;;9.98;52.70;97824.56;5058375;23;20040;-44
2020/12/20 05:35:00;;;;;;;4.10;2.90;;;9.90;59.60;;;9.97;52.62;97823.72;5045111;28;20048;-44
2020/12/20 05:37:34;;;;;;;4.17;3.10;;;9.80;59.20;;;9.96;52.95;97819.38;5044969;28;20058;-47
2020/12/20 05:40:35;;;;;;;3.97;2.97;;;9.80;59.50;;;9.98;52.58;97817.44;5044455;28;20059;-43
2020/12/20 05:43:08;;;;;;;6.50;3.00;;;9.90;59.20;;;9.96;52.41;97810.59;5044286;28;20045;-44
2020/12/20 05:45:44;;;;;;;6.53;2.97;;;9.90;59.30;;;9.98;52.58;97812.13;5044496;28;20071;-43
2020/12/20 05:48:26;;;;;;;4.90;2.53;;;9.90;59.30;;;9.99;52.57;97805.81;5060436;28;20052;-43
2020/12/20 05:51:02;;;;;;;5.10;2.90;;;9.90;59.20;;;10.00;52.46;97807.47;5044210;28;20051;-42
2020/12/20 05:53:34;;;;;;;4.97;3.33;;;9.90;59.20;;;10.02;52.70;97800.19;5062624;28;20067;-44
2020/12/20 05:56:05;;;;;;;5.17;2.77;;;10.00;59.70;;;10.02;52.32;97800.19;5044166;28;20349;-43
2020/12/20 05:58:34;;;;;;;4.73;3.40;;;10.00;58.90;;;10.02;52.65;97808.16;5061674;28;20055;-43
2020/12/20 06:01:02;;;;;;;5.10;3.83;;;9.90;59.20;;;10.02;52.58;97813.47;5059778;28;20045;-44
2020/12/20 06:03:30;;;;;;;5.63;3.77;;;9.90;59.20;;;10.01;52.77;97810.97;5061969;28;20053;-43
2020/12/20 06:06:01;;;;;;;5.97;4.53;;;9.90;59.30;;;10.01;52.61;97817.13;5061063;28;20371;-43
2020/12/20 06:08:32;;;;;;;5.73;4.50;;;9.90;59.30;;;10.00;52.48;97811.94;5062312;28;20052;-44
2020/12/20 06:11:02;;;;;;;4.83;4.13;;;9.90;59.30;;;10.02;52.47;97818.81;5062225;28;20045;-43
2020/12/20 06:13:33;;;;;;;5.97;4.07;;;9.90;59.50;;;10.02;52.59;97828.59;5044464;28;20049;-43
2020/12/20 06:16:09;;;;;;;6.33;3.73;;;9.90;59.40;;;10.02;52.34;97823.25;5061718;28;20049;-43
2020/12/20 06:18:50;;;;;;;3.77;2.90;;;9.90;58.70;;;10.03;52.69;97830.28;5062117;28;20041;-44
2020/12/20 06:21:25;;;;;;;4.63;3.30;;;9.90;58.80;;;10.02;52.25;97834.75;5061491;28;20051;-43
2020/12/20 06:23:57;;;;;;;4.00;3.10;;;9.90;58.90;;;10.02;52.47;97833.91;5062039;28;20051;-45
2020/12/20 06:26:33;;;;;;;5.13;3.03;;;9.90;59.90;;;10.03;52.33;97831.09;5044210;28;20057;-43
2020/12/20 06:29:04;;;;;;;4.37;2.97;;;9.90;59.00;;;10.04;52.42;97838.09;5045187;28;20222;-46
2020/12/20 06:31:39;;;;;;;4.10;2.87;;;9.90;58.80;;;10.05;52.56;97833.59;5061904;28;20335;-45
2020/12/20 06:34:14;;;;;;;4.80;3.00;;;9.90;59.10;;;10.04;52.23;97830.13;5044754;28;20087;-43
2020/12/20 06:36:45;;;;;;;4.40;2.90;;;9.90;58.80;;;10.06;52.13;97840.59;5044164;28;20074;-45
2020/12/20 06:39:16;;;;;;;5.83;2.90;;;10.00;58.90;;;10.06;52.12;97837.94;5044323;28;20055;-44
2020/12/20 06:41:52;;;;;;;5.30;2.60;;;10.00;58.90;;;10.07;52.28;97834.28;5061869;28;20049;-45
2020/12/20 06:44:19;;;;;;;4.03;3.27;;;10.00;58.40;;;10.08;52.21;97838.63;5061775;28;20067;-43
2020/12/20 06:46:48;;;;;;;4.27;2.93;;;10.00;58.80;;;10.08;52.04;97837.78;5043638;28;20268;-44
2020/12/20 06:49:51;;;;;;;3.67;2.67;;;9.90;58.80;;;10.09;52.03;97836.81;5061872;28;20049;-44
2020/12/20 06:52:24;;;;;;;5.30;2.80;;;10.00;57.90;;;10.08;52.09;97829.81;4994280;28;20067;-45
2020/12/20 06:55:08;;;;;;;4.10;2.83;;;10.00;58.90;;;10.07;52.09;97836.94;5061321;28;20051;-44
2020/12/20 06:57:58;;;;;;;4.10;2.92;;;10.00;58.40;;;10.05;52.22;97833.59;5061406;28;20051;-44
2020/12/20 07:00:47;;;;;;;5.93;3.53;;;10.00;58.90;;;10.07;51.99;97842.28;5046801;28;20041;-43
2020/12/20 07:03:32;;;;;;;3.53;2.77;;;10.00;58.20;;;10.07;52.01;97842.28;5059756;28;20123;-43
2020/12/20 07:06:12;;;;;;;4.67;2.80;;;10.00;58.40;;;10.07;52.01;97852.09;5061175;28;20045;-43
2020/12/20 07:09:05;;;;;;;5.87;3.50;;;10.00;58.30;;;10.05;52.07;97854.88;5061574;28;20063;-44
2020/12/20 07:11:42;;;;;;;6.07;3.00;;;9.90;58.70;;;10.05;52.14;97860.22;5061549;28;20230;-44
2020/12/20 07:14:21;;;;;;;6.77;3.67;;;9.90;58.80;;;10.06;52.24;97867.19;5060903;28;20053;-42
2020/12/20 07:16:50;;;;;;;6.87;4.50;;;9.90;58.80;;;10.07;52.00;97878.69;5060441;28;20048;-45
2020/12/20 07:19:26;;;;;;;8.30;5.57;;;9.90;58.70;;;10.04;51.84;97871.81;5043550;28;20225;-43
2020/12/20 07:21:56;;;;;;;5.60;3.73;;;9.80;58.60;;;10.02;51.72;97879.13;5027567;28;20067;-44
2020/12/20 07:24:34;;;;;;;5.53;3.27;;;9.80;59.00;;;10.00;52.26;97881.09;5043265;28;20055;-46
2020/12/20 07:27:04;;;;;;;4.67;3.80;;;9.80;58.80;;;10.01;51.89;97878.28;5061051;28;20049;-40
2020/12/20 07:29:35;;;;;;;4.80;3.60;;;9.90;59.10;;;10.00;52.38;97879.31;5061392;28;20057;-42
2020/12/20 07:32:04;;;;;;;9.23;4.10;;;9.80;59.30;;;9.97;52.40;97881.41;5043890;28;20055;-43
2020/12/20 07:34:32;;;;;;;4.87;3.33;;;9.70;59.80;;;9.94;52.66;97885.19;5062098;28;20344;-43
2020/12/20 07:37:00;;;;;;;5.53;3.70;;;9.70;59.80;;;9.94;52.91;97882.53;5064669;28;20041;-45
2020/12/20 07:39:28;;;;;;;6.33;4.60;;;9.70;60.10;;;9.86;52.88;97885.94;5064640;28;20067;-43
2020/12/20 07:42:00;;;;;;;5.90;4.53;;;9.60;60.60;;;9.81;53.44;97882.94;5064883;28;20049;-42
2020/12/20 07:44:34;;;;;;;9.30;5.20;;;9.60;61.40;;;9.72;53.86;97885.66;5065370;28;20209;-44
2020/12/20 07:47:12;;;;;;;7.00;5.90;;;9.40;62.70;;;9.63;54.83;97893.53;5064513;28;20055;-43
2020/12/20 07:49:39;;;;;;;7.23;4.67;;;9.20;64.30;;;9.53;54.43;97892.75;5064977;28;20053;-43
2020/12/20 07:52:08;;;;;;;7.80;5.53;;;9.10;63.60;;;9.44;54.60;97894.47;5064890;28;20071;-42
2020/12/20 07:54:36;;;;;;;7.73;5.40;;;9.00;64.00;;;9.42;54.87;97895.59;5064786;28;20240;-43
2020/12/20 07:57:05;;;;;;;12.90;9.43;;;9.10;63.70;;;9.39;55.06;97894.06;5061772;28;20041;-45
2020/12/20 07:59:32;;;;;;;10.60;7.17;;;9.10;64.20;;;9.41;55.34;97900.09;5063778;28;20041;-43
2020/12/20 08:02:00;;;;;;;7.70;6.20;;;9.20;64.50;;;9.42;55.71;97900.91;5061514;28;20247;-44
2020/12/20 08:04:27;;;;;;;7.17;5.87;;;9.10;65.50;;;9.42;56.16;97904.44;5063720;28;20055;-43
2020/12/20 08:06:54;;;;;;;8.40;6.80;;;9.10;66.10;;;9.42;56.50;97895.59;5063338;28;20236;-45
2020/12/20 08:09:26;;;;;;;10.13;7.00;;;9.10;66.20;;;9.40;56.55;97898.44;5062549;28;20044;-43
2020/12/20 08:11:55;;;;;;;10.17;7.17;;;9.10;67.00;;;9.38;56.54;97892.41;5063547;28;20059;-44
2020/12/20 08:14:24;;;;;;;8.07;5.90;;;9.10;66.30;;;9.34;56.75;97904.31;5062863;28;20051;-43
2020/12/20 08:16:54;;;;;;;8.43;6.30;;;9.00;66.40;;;9.33;56.88;97901.81;5063542;28;20047;-42
2020/12/20 08:19:27;;;;;;;6.30;5.40;;;9.00;67.10;;;9.33;56.93;97900.00;5063360;28;20045;-42
2020/12/20 08:22:13;;;;;;;8.90;6.17;;;9.00;67.40;;;9.32;57.27;97903.63;5062888;28;20049;-42
2020/12/20 08:24:47;;;;;;;8.73;6.77;;;9.00;68.10;;;9.31;57.10;97904.63;5063141;28;20583;-44
2020/12/20 08:27:28;;;;;;;;;;;9.00;67.50;;;9.27;57.13;97898.75;5062555;28;20249;-42
2020/12/20 08:29:59;;;;;;;8.70;5.70;;;8.90;69.40;;;9.28;56.80;97910.22;5063069;28;19917;-41
2020/12/20 08:32:41;;;;;;;6.90;6.20;;;8.90;67.30;;;9.23;57.26;97907.19;5063092;28;20055;-43
2020/12/20 08:35:29;;;;;;;10.00;6.27;;;8.90;68.10;;;9.20;57.30;97912.75;5060473;28;20049;-41
2020/12/20 08:38:01;;;;;;;9.00;5.80;;;8.90;68.30;;;9.18;57.15;97912.91;5063160;28;20037;-44
2020/12/20 08:40:31;;;;;;;8.23;5.50;;;8.80;67.30;;;9.18;56.89;97910.25;5061810;28;20045;-42
2020/12/20 08:43:03;;;;;;;8.93;7.00;;;8.80;66.70;;;9.18;56.84;97917.38;5045372;28;20352;-42
2020/12/20 08:45:31;;;;;;;6.60;6.00;;;8.90;66.80;;;9.16;57.12;97916.69;5061191;28;20055;-44
2020/12/20 08:48:03;;;;;;;10.20;5.87;;;8.90;66.80;;;9.16;57.08;97916.69;5062019;28;20053;-42
2020/12/20 08:50:32;;;;;;;8.53;6.37;;;8.90;66.60;;;9.18;57.07;97914.72;5062849;28;20052;-42
2020/12/20 08:53:05;;;;;;;12.83;10.13;;;8.90;66.60;;;9.19;57.19;97919.03;5062213;28;20052;-44
2020/12/20 08:55:33;;;;;;;12.10;9.13;;;8.90;67.10;;;9.20;57.20;97912.75;5060904;28;20055;-43
2020/12/20 08:58:08;;;;;;;13.40;9.00;;;8.90;66.80;;;9.22;57.12;97924.09;5062601;28;20237;-42
2020/12/20 09:00:36;;;;;;;16.47;13.67;;;9.00;66.90;;;9.25;57.06;97926.47;5062041;28;20128;-42
2020/12/20 09:03:06;;;;;;;11.77;8.40;;;9.00;66.60;;;9.26;57.46;97925.47;5062691;28;20213;-42
2020/12/20 09:05:37;;;;;;;13.47;8.77;;;9.00;66.60;;;9.26;57.16;97923.63;5062220;28;20049;-44
2020/12/20 09:08:05;;;;;;;16.53;10.37;;;9.10;66.30;;;9.30;57.33;97926.00;5058370;28;20057;-42
2020/12/20 09:10:35;;;;;;;24.97;16.20;;;9.10;66.40;;;9.34;57.52;97919.41;5059204;28;20048;-42
2020/12/20 09:13:09;;;;;;;33.90;19.47;;;9.10;66.50;;;9.34;57.53;97912.28;5053953;28;20040;-42
2020/12/20 09:15:43;;;;;;;35.60;21.23;;;9.20;66.50;;;9.38;57.28;97918.13;5061621;28;20055;-43
2020/12/20 09:18:17;;;;;;;30.33;17.47;;;9.20;66.50;;;9.39;57.26;97920.66;5062232;28;20367;-42
2020/12/20 09:20:46;;;;;;;22.27;14.27;;;9.20;66.40;;;9.42;57.55;97932.81;5062171;28;20045;-43
2020/12/20 09:23:18;;;;;;;18.67;12.77;;;9.30;66.40;;;9.44;57.54;97922.84;5062161;28;20041;-42
2020/12/20 09:25:47;;;;;;;15.77;11.27;;;9.30;66.60;;;9.48;57.67;97924.25;5061914;28;20045;-43
2020/12/20 09:28:21;;;;;;;16.50;11.87;;;9.40;66.70;;;9.50;57.84;97919.63;5061880;28;20057;-44
2020/12/20 09:30:52;;;;;;;12.20;9.00;;;9.40;67.10;;;9.49;57.60;97922.44;5062061;28;20044;-43
2020/12/20 09:33:31;;;;;;;25.13;17.73;;;9.40;66.40;;;9.47;57.83;97914.59;5060445;28;20055;-42
2020/12/20 09:36:24;;;;;;;35.07;23.33;;;9.40;67.10;;;9.48;58.07;97915.44;5041188;28;20226;-41
2020/12/20 09:39:00;;;;;;;17.13;11.70;;;9.40;67.30;;;9.47;57.63;97919.91;5041868;28;20084;-43
2020/12/20 09:41:30;;;;;;;12.77;9.97;;;9.30;67.00;;;9.46;57.78;97924.41;5023082;28;20049;-43
2020/12/20 09:43:59;;;;;;;21.73;13.10;;;9.40;66.80;;;9.48;57.83;97931.38;5040594;28;20042;-44
2020/12/20 09:46:34;;;;;;;11.77;8.00;;;9.30;66.90;;;9.48;57.84;97929.56;5041323;28;20049;-45
2020/12/20 09:49:04;;;;;;;22.20;13.20;;;9.30;67.00;;;9.48;57.88;97934.91;5040397;28;20248;-44
2020/12/20 09:51:34;;;;;;;52.77;29.13;;;9.30;67.20;;;9.49;57.76;97927.75;5041324;28;20047;-43
2020/12/20 09:54:02;;;;;;;23.53;13.77;;;9.30;67.50;;;9.50;58.05;97927.59;5042342;28;20061;-43
2020/12/20 09:56:31;;;;;;;33.07;20.43;;;9.30;67.30;;;9.53;58.04;97921.97;5041916;28;20049;-42
2020/12/20 09:58:58;;;;;;;68.97;40.07;;;9.40;67.30;;;9.54;58.27;97922.81;5042119;28;20045;-43
2020/12/20 10:01:25;;;;;;;26.27;15.60;;;9.40;67.30;;;9.53;58.04;97924.63;5042310;28;20051;-43
2020/12/20 10:04:02;;;;;;;27.30;16.53;;;9.40;67.10;;;9.56;58.32;97924.34;5024771;28;20241;-42
2020/12/20 10:06:30;;;;;;;39.17;25.33;;;9.50;67.60;;;9.56;58.34;97923.53;5041138;28;20064;-43
2020/12/20 10:08:57;;;;;;;51.13;28.27;;;9.40;67.20;;;9.58;58.17;97929.53;5041630;28;20257;-42
2020/12/20 10:11:25;;;;;;;56.50;32.00;;;9.40;67.30;;;9.59;58.42;97926.69;5042190;28;20364;-42
2020/12/20 10:13:53;;;;;;;26.53;17.13;;;9.50;67.50;;;9.60;58.30;97931.03;5042172;28;20238;-43
2020/12/20 10:16:21;;;;;;;61.10;40.10;;;9.50;67.40;;;9.64;58.10;97932.41;5040710;28;20049;-41
2020/12/20 10:18:48;;;;;;;41.97;27.47;;;9.50;67.30;;;9.68;58.36;97937.44;5035124;28;20048;-42
2020/12/20 10:21:16;;;;;;;21.73;15.03;;;9.60;67.30;;;9.69;58.40;97929.31;5034639;28;20048;-43
2020/12/20 10:23:49;;;;;;;10.27;8.50;;;9.60;67.30;;;9.71;58.36;97929.16;5040528;28;20075;-44
2020/12/20 10:26:17;;;;;;;17.70;14.53;;;9.60;67.30;;;9.73;58.55;97930.72;5040450;28;20053;-43
2020/12/20 10:28:45;;;;;;;14.23;10.57;;;9.60;67.60;;;9.74;58.39;97931.53;5023084;28;20063;-43
2020/12/20 10:31:18;;;;;;;9.60;7.77;;;9.60;67.40;;;9.75;58.35;97938.50;5045651;28;20051;-43
2020/12/20 10:33:47;;;;;;;11.43;8.07;;;9.60;67.30;;;9.74;58.32;97932.38;5050046;28;20064;-41
2020/12/20 10:36:15;;;;;;;10.67;7.97;;;9.60;67.30;;;9.75;58.43;97942.03;5056182;28;20052;-41
2020/12/20 10:38:43;;;;;;;12.13;8.80;;;9.70;67.70;;;9.79;58.59;97937.22;5060119;28;20055;-41
2020/12/20 10:41:10;;;;;;;10.90;7.83;;;9.70;67.60;;;9.80;58.51;97934.41;5052050;28;20047;-41
2020/12/20 10:43:38;;;;;;;11.80;8.00;;;9.70;67.50;;;9.83;58.48;97925.31;5040339;28;20049;-42
2020/12/20 10:46:07;;;;;;;11.33;9.20;;;9.80;67.40;;;9.83;58.49;97935.97;5040477;28;20640;-43
2020/12/20 10:48:37;;;;;;;13.07;7.57;;;9.80;67.20;;;9.86;58.13;97940.97;5040729;28;20057;-41
2020/12/20 10:51:05;;;;;;;11.70;8.10;;;9.80;67.10;;;9.83;58.49;97936.78;5039816;28;20049;-41